createdAt,value
2019-02-21T00:01:50.030Z,66.30
2019-02-21T00:04:19.536Z,66.64
2019-02-21T00:06:49.295Z,66.00
2019-02-21T00:09:19.144Z,66.17
2019-02-21T00:11:48.722Z,66.70
2019-02-21T00:14:18.655Z,66.64
2019-02-21T00:16:49.583Z,66.46
2019-02-21T00:19:20.613Z,66.65
2019-02-21T00:21:50.809Z,66.73
2019-02-21T00:24:20.275Z,66.85
2019-02-21T00:26:49.660Z,66.65
2019-02-21T00:29:19.230Z,67.25
2019-02-21T00:31:48.809Z,67.20
2019-02-21T00:34:18.406Z,66.54
2019-02-21T00:36:48.021Z,67.02
2019-02-21T00:39:17.416Z,66.82
2019-02-21T00:41:47.246Z,66.91
2019-02-21T00:44:16.641Z,66.71
2019-02-21T00:46:46.550Z,66.68
2019-02-21T00:49:15.934Z,67.08
2019-02-21T00:51:46.641Z,66.95
2019-02-21T00:54:16.050Z,66.87
2019-02-21T00:56:45.455Z,67.36
2019-02-21T00:59:15.004Z,67.37
2019-02-21T01:01:44.941Z,67.24
2019-02-21T01:04:14.799Z,67.38
2019-02-21T01:06:45.210Z,67.17
2019-02-21T01:09:14.703Z,67.40
2019-02-21T01:11:44.129Z,67.66
2019-02-21T01:14:16.549Z,67.57
2019-02-21T01:16:46.422Z,67.50
2019-02-21T01:19:16.640Z,67.56
2019-02-21T01:21:46.112Z,67.63
2019-02-21T01:24:15.837Z,67.53
2019-02-21T01:26:46.507Z,67.64
2019-02-21T01:29:16.378Z,67.70
2019-02-21T01:31:46.152Z,67.61
2019-02-21T01:34:16.257Z,67.40
2019-02-21T01:36:45.744Z,67.43
2019-02-21T01:39:15.145Z,67.51
2019-02-21T01:41:44.618Z,67.61
2019-02-21T01:44:15.553Z,67.43
2019-02-21T01:46:44.965Z,67.83
2019-02-21T01:49:14.317Z,67.44
2019-02-21T01:51:43.872Z,67.61
2019-02-21T01:54:13.365Z,67.81
2019-02-21T01:56:44.122Z,68.17
2019-02-21T01:59:14.136Z,67.80
2019-02-21T02:01:46.243Z,67.79
2019-02-21T02:04:15.654Z,67.78
2019-02-21T02:06:45.057Z,67.43
2019-02-21T02:09:14.750Z,67.73
2019-02-21T02:11:44.485Z,67.89
2019-02-21T02:14:13.933Z,67.83
2019-02-21T02:16:43.541Z,67.66
2019-02-21T02:19:15.209Z,67.89
2019-02-21T02:21:44.861Z,67.93
2019-02-21T02:24:14.876Z,68.08
2019-02-21T02:26:44.341Z,68.14
2019-02-21T02:29:15.503Z,68.20
2019-02-21T02:31:44.941Z,67.94
2019-02-21T02:34:14.770Z,67.82
2019-02-21T02:36:46.731Z,68.09
2019-02-21T02:39:16.255Z,67.95
2019-02-21T02:41:45.878Z,67.94
2019-02-21T02:44:15.404Z,67.85
2019-02-21T02:46:44.824Z,67.60
2019-02-21T02:49:14.388Z,67.61
2019-02-21T02:51:44.267Z,67.63
2019-02-21T02:54:14.300Z,67.53
2019-02-21T02:56:44.278Z,67.58
2019-02-21T02:59:13.814Z,67.56
2019-02-21T03:01:43.288Z,67.62
2019-02-21T03:04:13.057Z,67.68
2019-02-21T03:06:42.490Z,67.49
2019-02-21T03:09:12.748Z,67.59
2019-02-21T03:11:42.583Z,67.67
2019-02-21T03:14:11.950Z,67.36
2019-02-21T03:16:42.689Z,67.36
2019-02-21T03:19:13.602Z,67.32
2019-02-21T03:21:42.927Z,67.65
2019-02-21T03:24:12.857Z,67.57
2019-02-21T03:26:42.848Z,67.69
2019-02-21T03:29:12.371Z,67.70
2019-02-21T03:31:54.515Z,67.50
2019-02-21T03:34:12.948Z,67.49
2019-02-21T03:36:42.459Z,68.00
2019-02-21T03:39:13.154Z,67.75
2019-02-21T03:41:42.644Z,67.83
2019-02-21T03:44:12.347Z,67.53
2019-02-21T03:46:41.814Z,67.57
2019-02-21T03:49:11.160Z,67.87
2019-02-21T03:51:40.479Z,67.55
2019-02-21T03:54:10.162Z,67.52
2019-02-21T03:56:39.589Z,67.34
2019-02-21T03:59:09.284Z,67.10
2019-02-21T04:01:40.082Z,66.83
2019-02-21T04:04:09.572Z,67.18
2019-02-21T04:06:40.462Z,67.10
2019-02-21T04:09:10.047Z,67.17
2019-02-21T04:11:39.407Z,67.30
2019-02-21T04:14:08.885Z,67.20
2019-02-21T04:16:38.372Z,67.06
2019-02-21T04:19:07.806Z,66.85
2019-02-21T04:21:38.606Z,66.91
2019-02-21T04:24:08.472Z,67.43
2019-02-21T04:26:37.918Z,67.19
2019-02-21T04:29:07.480Z,67.27
2019-02-21T04:31:37.231Z,67.18
2019-02-21T04:34:06.998Z,67.08
2019-02-21T04:36:36.432Z,67.05
2019-02-21T04:39:06.363Z,67.22
2019-02-21T04:41:35.893Z,67.06
2019-02-21T04:44:05.262Z,67.16
2019-02-21T04:46:34.836Z,67.19
2019-02-21T04:49:04.203Z,67.07
2019-02-21T04:51:33.542Z,67.22
2019-02-21T04:54:03.042Z,67.40
2019-02-21T04:56:33.429Z,67.45
2019-02-21T04:59:02.812Z,67.27
2019-02-21T05:01:32.315Z,67.52
2019-02-21T05:04:04.917Z,67.56
2019-02-21T05:06:34.620Z,67.72
2019-02-21T05:09:07.397Z,67.72
2019-02-21T05:11:37.068Z,67.51
2019-02-21T05:14:06.800Z,67.38
2019-02-21T05:16:36.228Z,67.23
2019-02-21T05:19:05.973Z,67.26
2019-02-21T05:21:35.562Z,67.57
2019-02-21T05:24:04.934Z,67.53
2019-02-21T05:26:39.598Z,67.58
2019-02-21T05:29:11.123Z,67.65
2019-02-21T05:31:59.395Z,67.55
2019-02-21T05:34:49.032Z,67.36
2019-02-21T05:37:37.339Z,67.44
2019-02-21T05:40:28.961Z,67.69
2019-02-21T05:43:16.692Z,67.49
2019-02-21T05:46:05.073Z,67.92
2019-02-21T05:48:50.766Z,67.78
2019-02-21T05:51:39.212Z,67.52
2019-02-21T05:54:33.462Z,67.23
2019-02-21T05:57:19.512Z,67.15
2019-02-21T06:00:10.601Z,67.40
2019-02-21T06:03:01.913Z,67.43
2019-02-21T06:05:52.767Z,67.48
2019-02-21T06:08:44.236Z,67.47
2019-02-21T06:11:44.899Z,67.67
2019-02-21T06:14:33.358Z,67.63
2019-02-21T06:17:15.376Z,67.73
2019-02-21T06:19:55.846Z,67.26
2019-02-21T06:22:50.006Z,67.41
2019-02-21T06:25:52.014Z,67.31
2019-02-21T06:28:34.316Z,67.48
2019-02-21T06:31:10.714Z,66.97
2019-02-21T06:33:40.074Z,66.87
2019-02-21T06:36:09.739Z,66.29
2019-02-21T06:38:39.596Z,66.04
2019-02-21T06:41:09.409Z,65.68
2019-02-21T06:43:40.009Z,65.25
2019-02-21T06:46:09.702Z,64.79
2019-02-21T06:48:39.130Z,64.26
2019-02-21T06:51:08.570Z,63.77
2019-02-21T06:53:38.840Z,62.89
2019-02-21T06:56:08.241Z,62.14
2019-02-21T06:58:37.674Z,60.71
2019-02-21T07:01:07.013Z,58.62
2019-02-21T07:03:36.536Z,56.51
2019-02-21T07:06:06.073Z,53.54
2019-02-21T07:08:35.478Z,51.12
2019-02-21T07:11:06.442Z,46.87
2019-02-21T07:13:36.121Z,44.22
2019-02-21T07:16:05.551Z,40.63
2019-02-21T07:18:35.246Z,37.68
2019-02-21T07:21:05.096Z,35.88
2019-02-21T07:23:43.134Z,34.39
2019-02-21T07:26:08.485Z,36.16
2019-02-21T07:28:41.579Z,40.40
2019-02-21T07:31:10.277Z,44.07
2019-02-21T07:33:41.341Z,46.80
2019-02-21T07:36:11.124Z,48.97
2019-02-21T07:38:40.511Z,50.40
2019-02-21T07:41:11.033Z,51.37
2019-02-21T07:43:41.099Z,52.64
2019-02-21T07:46:10.913Z,53.58
2019-02-21T07:48:40.505Z,54.33
2019-02-21T07:51:09.965Z,54.78
2019-02-21T07:53:39.421Z,55.20
2019-02-21T07:56:08.828Z,55.49
2019-02-21T07:58:39.701Z,55.68
2019-02-21T08:01:10.324Z,56.03
2019-02-21T08:03:44.985Z,56.11
2019-02-21T08:06:11.152Z,56.17
2019-02-21T08:08:40.558Z,56.53
2019-02-21T08:11:10.355Z,56.80
2019-02-21T08:13:39.801Z,56.65
2019-02-21T08:16:12.288Z,56.75
2019-02-21T08:18:40.891Z,57.13
2019-02-21T08:21:10.276Z,57.04
2019-02-21T08:23:49.943Z,57.12
2019-02-21T08:26:11.510Z,57.23
2019-02-21T08:28:42.997Z,57.29
2019-02-21T08:31:13.138Z,57.13
2019-02-21T08:34:00.329Z,56.67
2019-02-21T08:36:29.821Z,56.80
2019-02-21T08:38:59.244Z,56.80
2019-02-21T08:41:29.446Z,56.64
2019-02-21T08:43:59.048Z,56.83
2019-02-21T08:46:28.371Z,56.58
2019-02-21T08:48:58.166Z,56.21
2019-02-21T08:51:27.719Z,56.07
2019-02-21T08:53:57.293Z,56.08
2019-02-21T08:56:29.849Z,55.77
2019-02-21T08:58:58.946Z,55.77
2019-02-21T09:01:28.583Z,55.75
2019-02-21T09:04:09.560Z,55.43
2019-02-21T09:06:29.401Z,55.23
2019-02-21T09:08:58.739Z,54.80
2019-02-21T09:11:28.603Z,54.75
2019-02-21T09:13:58.355Z,54.31
2019-02-21T09:16:27.877Z,54.61
2019-02-21T09:18:57.626Z,54.47
2019-02-21T09:21:27.570Z,54.38
2019-02-21T09:23:57.119Z,53.45
2019-02-21T09:26:26.545Z,53.34
2019-02-21T09:28:58.520Z,53.85
2019-02-21T09:31:27.860Z,53.36
2019-02-21T09:33:57.306Z,53.32
2019-02-21T09:36:29.505Z,53.48
2019-02-21T09:38:59.095Z,53.11
2019-02-21T09:41:28.826Z,52.96
2019-02-21T09:43:58.362Z,53.01
2019-02-21T09:46:27.832Z,53.04
2019-02-21T09:48:57.440Z,52.52
2019-02-21T09:51:29.645Z,52.38
2019-02-21T09:53:59.067Z,51.80
2019-02-21T09:56:30.725Z,51.60
2019-02-21T09:59:00.054Z,51.16
2019-02-21T10:01:29.782Z,50.91
2019-02-21T10:03:59.707Z,50.59
2019-02-21T10:06:29.074Z,50.13
2019-02-21T10:08:58.775Z,50.29
2019-02-21T10:11:28.626Z,50.59
2019-02-21T10:13:58.108Z,50.85
2019-02-21T10:16:27.495Z,51.27
2019-02-21T10:18:57.031Z,51.21
2019-02-21T10:21:26.844Z,51.17
2019-02-21T10:23:56.936Z,51.44
2019-02-21T10:26:26.292Z,51.14
2019-02-21T10:28:55.704Z,50.86
2019-02-21T10:31:25.352Z,50.67
2019-02-21T10:33:55.160Z,50.85
2019-02-21T10:36:25.042Z,50.91
2019-02-21T10:38:54.399Z,50.66
2019-02-21T10:41:23.795Z,50.16
2019-02-21T10:43:53.745Z,50.30
2019-02-21T10:46:23.583Z,49.94
2019-02-21T10:48:53.446Z,49.42
2019-02-21T10:51:23.104Z,49.28
2019-02-21T10:53:53.562Z,49.09
2019-02-21T10:56:23.344Z,48.76
2019-02-21T10:58:52.895Z,48.48
2019-02-21T11:01:22.543Z,48.49
2019-02-21T11:03:52.674Z,48.15
2019-02-21T11:06:23.726Z,48.19
2019-02-21T11:08:54.115Z,48.27
2019-02-21T11:11:23.940Z,48.37
2019-02-21T11:13:53.802Z,48.29
2019-02-21T11:16:24.073Z,48.33
2019-02-21T11:18:53.429Z,47.83
2019-02-21T11:21:22.941Z,47.69
2019-02-21T11:23:52.429Z,47.80
2019-02-21T11:26:22.386Z,47.33
2019-02-21T11:28:51.728Z,47.05
2019-02-21T11:31:21.444Z,47.03
2019-02-21T11:33:50.908Z,46.89
2019-02-21T11:36:20.854Z,47.21
2019-02-21T11:38:50.606Z,47.42
2019-02-21T11:41:20.099Z,46.43
2019-02-21T11:43:49.623Z,45.43
2019-02-21T11:46:19.053Z,44.41
2019-02-21T11:48:48.644Z,43.25
2019-02-21T11:51:18.037Z,41.97
2019-02-21T11:53:49.774Z,40.68
2019-02-21T11:56:19.195Z,38.11
2019-02-21T11:58:48.643Z,34.92
2019-02-21T12:01:18.006Z,30.23
2019-02-21T12:03:47.538Z,23.39
2019-02-21T12:06:17.119Z,23.39
2019-02-21T12:08:47.069Z,20.94
2019-02-21T12:11:16.518Z,19.81
2019-02-21T12:13:46.842Z,18.20
2019-02-21T12:16:16.675Z,17.70
2019-02-21T12:18:47.042Z,18.01
2019-02-21T12:21:16.968Z,17.32
2019-02-21T12:23:47.637Z,17.31
2019-02-21T12:26:17.140Z,17.02
2019-02-21T12:28:46.444Z,17.57
2019-02-21T12:31:15.937Z,16.24
2019-02-21T12:33:45.380Z,15.98
2019-02-21T12:36:15.228Z,15.29
2019-02-21T12:38:44.630Z,16.20
2019-02-21T12:41:14.155Z,15.49
2019-02-21T12:43:43.678Z,16.30
2019-02-21T12:46:13.493Z,15.58
2019-02-21T12:48:43.367Z,14.27
2019-02-21T12:51:12.873Z,15.14
2019-02-21T12:53:43.025Z,14.42
2019-02-21T12:56:12.908Z,13.89
2019-02-21T12:58:45.093Z,15.69
2019-02-21T13:01:13.953Z,15.87
2019-02-21T13:03:43.691Z,15.95
2019-02-21T13:06:13.175Z,19.62
2019-02-21T13:08:42.539Z,22.21
2019-02-21T13:11:11.959Z,24.88
2019-02-21T13:13:41.621Z,25.90
2019-02-21T13:16:11.034Z,28.31
2019-02-21T13:18:40.468Z,29.60
2019-02-21T13:21:10.428Z,31.33
2019-02-21T13:23:42.769Z,31.99
2019-02-21T13:26:12.917Z,32.88
2019-02-21T13:28:43.179Z,33.63
2019-02-21T13:31:12.513Z,34.88
2019-02-21T13:33:42.411Z,35.68
2019-02-21T13:36:11.869Z,35.84
2019-02-21T13:38:41.211Z,36.53
2019-02-21T13:41:10.809Z,37.06
2019-02-21T13:43:40.248Z,37.55
2019-02-21T13:46:10.158Z,38.37
2019-02-21T13:48:39.719Z,39.14
2019-02-21T13:51:09.165Z,39.22
2019-02-21T13:53:39.441Z,39.51
2019-02-21T13:56:08.900Z,39.51
2019-02-21T13:58:38.383Z,40.53
2019-02-21T14:01:07.764Z,40.53
2019-02-21T14:03:37.296Z,40.16
2019-02-21T14:06:06.743Z,40.87
2019-02-21T14:08:36.420Z,40.90
2019-02-21T14:11:06.104Z,40.90
2019-02-21T14:13:36.524Z,40.89
2019-02-21T14:16:06.107Z,40.89
2019-02-21T14:18:36.433Z,41.38
2019-02-21T14:21:06.625Z,41.63
2019-02-21T14:23:36.155Z,42.14
2019-02-21T14:26:06.652Z,42.75
2019-02-21T14:28:37.480Z,43.21
2019-02-21T14:31:08.035Z,43.21
2019-02-21T14:33:37.435Z,43.98
2019-02-21T14:36:15.945Z,44.02
2019-02-21T14:38:40.425Z,44.10
2019-02-21T14:41:10.574Z,44.36
2019-02-21T14:43:43.307Z,45.05
2019-02-21T14:46:13.093Z,45.42
2019-02-21T14:48:42.892Z,45.85
2019-02-21T14:51:12.893Z,46.12
2019-02-21T14:53:42.539Z,46.61
2019-02-21T14:56:14.577Z,46.61
2019-02-21T14:58:45.250Z,47.46
2019-02-21T15:01:15.080Z,47.89
2019-02-21T15:03:45.498Z,47.43
2019-02-21T15:06:14.920Z,47.67
2019-02-21T15:08:44.814Z,47.93
2019-02-21T15:11:14.146Z,48.48
2019-02-21T15:13:43.613Z,49.55
2019-02-21T15:16:13.032Z,49.54
2019-02-21T15:18:42.406Z,50.46
2019-02-21T15:21:11.854Z,51.18
2019-02-21T15:23:41.708Z,52.69
2019-02-21T15:26:11.966Z,53.25
2019-02-21T15:28:41.645Z,53.70
2019-02-21T15:31:11.042Z,55.27
2019-02-21T15:33:40.403Z,55.78
2019-02-21T15:36:11.455Z,55.99
2019-02-21T15:38:41.307Z,56.09
2019-02-21T15:41:11.579Z,56.51
2019-02-21T15:43:41.395Z,56.21
2019-02-21T15:46:11.118Z,56.67
2019-02-21T15:48:44.580Z,57.24
2019-02-21T15:51:13.906Z,57.70
2019-02-21T15:53:44.034Z,58.54
2019-02-21T15:56:14.313Z,58.37
2019-02-21T15:58:46.750Z,58.56
2019-02-21T16:01:17.352Z,59.03
2019-02-21T16:03:50.883Z,59.97
2019-02-21T16:06:20.213Z,60.02
2019-02-21T16:08:49.610Z,60.34
2019-02-21T16:11:20.217Z,61.28
2019-02-21T16:14:02.031Z,61.03
2019-02-21T16:16:20.978Z,61.27
2019-02-21T16:18:51.816Z,60.88
2019-02-21T16:21:21.625Z,61.56
2019-02-21T16:23:51.214Z,62.42
2019-02-21T16:26:20.738Z,62.97
2019-02-21T16:28:52.131Z,62.02
2019-02-21T16:31:22.301Z,62.02
2019-02-21T16:33:51.751Z,63.43
2019-02-21T16:36:21.132Z,64.07
2019-02-21T16:38:52.347Z,64.19
2019-02-21T16:41:22.245Z,64.32
2019-02-21T16:43:53.108Z,63.72
2019-02-21T16:46:22.496Z,63.57
2019-02-21T16:48:52.416Z,64.54
2019-02-21T16:51:22.325Z,64.31
2019-02-21T16:53:52.198Z,64.64
2019-02-21T16:56:22.161Z,64.32
2019-02-21T16:58:52.679Z,64.80
2019-02-21T17:01:22.372Z,64.86
2019-02-21T17:03:51.835Z,64.15
2019-02-21T17:06:21.690Z,65.14
2019-02-21T17:08:51.287Z,64.75
2019-02-21T17:11:22.848Z,65.71
2019-02-21T17:13:53.288Z,65.32
2019-02-21T17:16:22.761Z,64.70
2019-02-21T17:18:52.168Z,65.33
2019-02-21T17:21:22.836Z,64.86
2019-02-21T17:23:52.416Z,65.51
2019-02-21T17:26:22.357Z,66.08
2019-02-21T17:28:51.815Z,66.17
2019-02-21T17:31:22.398Z,66.08
2019-02-21T17:33:51.759Z,66.35
2019-02-21T17:36:21.530Z,66.36
2019-02-21T17:38:51.048Z,66.49
2019-02-21T17:41:21.813Z,66.48
2019-02-21T17:43:51.561Z,66.98
2019-02-21T17:46:21.732Z,66.83
2019-02-21T17:48:52.128Z,67.00
2019-02-21T17:51:21.561Z,67.04
2019-02-21T17:53:52.746Z,66.92
2019-02-21T17:56:22.830Z,67.32
2019-02-21T17:58:52.394Z,67.60
2019-02-21T18:01:22.241Z,67.99
2019-02-21T18:03:51.777Z,67.61
2019-02-21T18:06:21.423Z,67.56
2019-02-21T18:08:51.208Z,67.30
2019-02-21T18:11:21.318Z,67.23
2019-02-21T18:13:51.821Z,67.20
2019-02-21T18:16:22.416Z,67.93
2019-02-21T18:18:51.881Z,67.63
2019-02-21T18:21:21.326Z,67.98
2019-02-21T18:23:51.750Z,68.01
2019-02-21T18:26:21.485Z,68.32
2019-02-21T18:28:51.004Z,68.27
2019-02-21T18:31:21.092Z,68.40
2019-02-21T18:33:50.527Z,68.32
2019-02-21T18:36:20.989Z,68.32
2019-02-21T18:38:50.786Z,67.51
2019-02-21T18:41:22.099Z,67.39
2019-02-21T18:43:52.388Z,67.47
2019-02-21T18:46:21.931Z,67.36
2019-02-21T18:48:52.462Z,67.12
2019-02-21T18:51:22.095Z,67.51
2019-02-21T18:53:52.037Z,68.14
2019-02-21T18:56:21.614Z,68.16
2019-02-21T18:58:51.160Z,67.83
2019-02-21T19:01:21.237Z,67.79
2019-02-21T19:03:50.850Z,67.04
2019-02-21T19:06:20.384Z,66.99
2019-02-21T19:08:49.858Z,67.66
2019-02-21T19:11:19.499Z,67.77
2019-02-21T19:13:48.955Z,67.88
2019-02-21T19:16:18.965Z,67.49
2019-02-21T19:18:48.890Z,67.65
2019-02-21T19:21:18.365Z,67.79
2019-02-21T19:23:47.783Z,67.32
2019-02-21T19:26:17.215Z,67.05
2019-02-21T19:28:46.714Z,67.20
2019-02-21T19:31:18.842Z,67.74
2019-02-21T19:33:48.947Z,67.42
2019-02-21T19:36:19.451Z,67.31
2019-02-21T19:38:49.613Z,67.46
2019-02-21T19:41:19.173Z,67.49
2019-02-21T19:43:50.974Z,67.70
2019-02-21T19:46:20.430Z,67.56
2019-02-21T19:48:49.889Z,68.42
2019-02-21T19:51:19.522Z,68.11
2019-02-21T19:53:49.065Z,67.97
2019-02-21T19:56:19.852Z,67.31
2019-02-21T19:58:49.266Z,67.06
2019-02-21T20:01:21.268Z,66.82
2019-02-21T20:03:51.440Z,66.46
2019-02-21T20:06:21.122Z,66.31
2019-02-21T20:08:50.533Z,66.96
2019-02-21T20:11:20.004Z,67.05
2019-02-21T20:13:50.059Z,67.07
2019-02-21T20:16:19.657Z,66.99
2019-02-21T20:18:49.040Z,66.68
2019-02-21T20:21:18.639Z,66.92
2019-02-21T20:23:49.049Z,67.18
2019-02-21T20:26:18.719Z,67.02
2019-02-21T20:28:48.148Z,66.82
2019-02-21T20:31:17.538Z,66.21
2019-02-21T20:33:47.731Z,66.28
2019-02-21T20:36:17.196Z,66.20
2019-02-21T20:38:46.802Z,66.45
2019-02-21T20:41:16.482Z,66.09
2019-02-21T20:43:45.904Z,65.93
2019-02-21T20:46:15.719Z,65.18
2019-02-21T20:48:45.273Z,65.67
2019-02-21T20:51:14.991Z,66.43
2019-02-21T20:53:45.181Z,66.56
2019-02-21T20:56:14.583Z,66.81
2019-02-21T20:58:44.208Z,67.33
2019-02-21T21:01:13.974Z,67.42
2019-02-21T21:03:43.477Z,66.87
2019-02-21T21:06:12.916Z,66.73
2019-02-21T21:08:44.243Z,66.95
2019-02-21T21:11:13.464Z,66.88
2019-02-21T21:13:44.271Z,67.13
2019-02-21T21:16:13.758Z,66.86
2019-02-21T21:18:43.436Z,67.30
2019-02-21T21:21:12.998Z,67.18
2019-02-21T21:23:43.268Z,67.55
2019-02-21T21:26:13.068Z,67.32
2019-02-21T21:28:43.262Z,66.88
2019-02-21T21:31:15.293Z,66.66
2019-02-21T21:33:48.410Z,67.22
2019-02-21T21:36:17.899Z,66.99
2019-02-21T21:38:53.981Z,66.65
2019-02-21T21:41:18.445Z,67.46
2019-02-21T21:43:47.847Z,67.26
2019-02-21T21:46:17.490Z,67.61
2019-02-21T21:48:47.879Z,67.49
2019-02-21T21:51:18.242Z,66.39
2019-02-21T21:53:47.580Z,66.59
2019-02-21T21:56:17.043Z,66.97
2019-02-21T21:58:46.435Z,66.56
2019-02-21T22:01:16.627Z,66.58
2019-02-21T22:03:46.003Z,66.72
2019-02-21T22:06:15.843Z,66.20
2019-02-21T22:08:45.349Z,65.94
2019-02-21T22:11:15.040Z,65.92
2019-02-21T22:13:44.510Z,66.37
2019-02-21T22:16:13.879Z,66.32
2019-02-21T22:18:43.338Z,66.08
2019-02-21T22:21:12.823Z,66.11
2019-02-21T22:23:42.294Z,66.28
2019-02-21T22:26:11.749Z,66.11
2019-02-21T22:28:41.628Z,66.04
2019-02-21T22:31:11.240Z,65.73
2019-02-21T22:33:40.686Z,65.90
2019-02-21T22:36:10.451Z,66.06
2019-02-21T22:38:40.029Z,65.96
2019-02-21T22:41:09.455Z,66.10
2019-02-21T22:43:38.885Z,66.17
2019-02-21T22:46:08.279Z,66.12
2019-02-21T22:48:46.912Z,66.18
2019-02-21T22:51:09.457Z,66.30
2019-02-21T22:53:39.092Z,66.20
2019-02-21T22:56:08.538Z,66.31
2019-02-21T22:58:45.117Z,66.06
2019-02-21T23:01:39.530Z,65.75
2019-02-21T23:05:05.228Z,66.04
2019-02-21T23:07:51.351Z,65.55
2019-02-21T23:10:21.203Z,65.95
2019-02-21T23:12:50.641Z,66.24
2019-02-21T23:15:20.079Z,66.05
2019-02-21T23:17:49.803Z,65.91
2019-02-21T23:20:19.326Z,65.74
2019-02-21T23:22:49.631Z,66.22
2019-02-21T23:25:19.236Z,65.99
2019-02-21T23:27:48.744Z,67.04
2019-02-21T23:30:18.120Z,66.16
2019-02-21T23:32:49.330Z,65.54
2019-02-21T23:35:21.467Z,66.14
2019-02-21T23:37:53.206Z,66.59
2019-02-21T23:40:23.099Z,66.63
2019-02-21T23:42:52.483Z,67.06
2019-02-21T23:45:21.882Z,66.85
2019-02-21T23:47:51.338Z,66.96
2019-02-21T23:50:21.854Z,66.85
2019-02-21T23:52:51.240Z,66.26
2019-02-21T23:55:20.844Z,66.52
2019-02-21T23:57:50.607Z,66.31
